Time;durP1;ratioP1;P1;durP2;ratioP2;P2;SDS_P1;SDS_P2;PMS_P1;PMS_P2;Temp;Humidity;BMP_temperature;BMP_pressure;BME280_temperature;BME280_humidity;BME280_pressure;Samples;Min_cycle;Max_cycle;Signal;HPM_P1;HPM_P2
2021/11/02 00:01:04;;;;;;;17.73;13.25;;;19.40;66.90;;;;;;6170557;23;20165;-77
2021/11/02 00:03:30;;;;;;;18.38;13.07;;;19.40;66.80;;;;;;6247072;23;20244;-77
2021/11/02 00:05:56;;;;;;;19.27;13.27;;;19.40;67.00;;;;;;6247336;23;20568;-76
2021/11/02 00:08:22;;;;;;;19.08;12.82;;;19.40;67.00;;;;;;6246815;23;20196;-77
2021/11/02 00:10:48;;;;;;;17.75;13.75;;;19.30;66.80;;;;;;6247059;23;20133;-77
2021/11/02 00:13:15;;;;;;;18.75;13.18;;;19.40;66.90;;;;;;6246939;23;20133;-77
2021/11/02 00:15:43;;;;;;;18.77;13.05;;;19.40;67.10;;;;;;6247016;23;20130;-77
2021/11/02 00:18:09;;;;;;;19.33;13.15;;;19.40;67.10;;;;;;6247262;23;20141;-77
2021/11/02 00:20:37;;;;;;;17.10;13.23;;;19.40;67.10;;;;;;6247137;23;20445;-77
2021/11/02 00:23:03;;;;;;;18.25;13.25;;;19.40;67.10;;;;;;6247132;23;20219;-77
2021/11/02 00:25:30;;;;;;;18.30;13.80;;;19.40;67.00;;;;;;6247024;23;20213;-77
2021/11/02 00:27:56;;;;;;;17.42;13.27;;;19.40;67.20;;;;;;6220548;23;20216;-77
2021/11/02 00:30:22;;;;;;;17.20;12.73;;;19.30;67.10;;;;;;6246919;23;20134;-77
2021/11/02 00:32:50;;;;;;;17.90;13.13;;;19.40;68.00;;;;;;6246796;23;20486;-77
2021/11/02 00:35:17;;;;;;;17.67;12.65;;;19.40;67.10;;;;;;6247107;23;20187;-77
2021/11/02 00:37:42;;;;;;;20.38;13.82;;;19.30;67.10;;;;;;6247178;23;20450;-77
2021/11/02 00:40:10;;;;;;;19.30;12.77;;;19.30;67.10;;;;;;6246888;23;20137;-77
2021/11/02 00:42:40;;;;;;;18.77;13.65;;;19.30;67.10;;;;;;6220106;23;20214;-77
2021/11/02 00:45:10;;;;;;;18.73;13.55;;;19.30;67.20;;;;;;6246919;23;20564;-77
2021/11/02 00:47:36;;;;;;;21.55;13.88;;;19.30;67.20;;;;;;6246904;23;20134;-77
2021/11/02 00:50:08;;;;;;;18.17;13.15;;;19.30;67.20;;;;;;6247014;23;20138;-77
2021/11/02 00:52:34;;;;;;;17.98;13.32;;;19.30;67.30;;;;;;6247304;23;20134;-76
2021/11/02 00:55:00;;;;;;;17.52;13.25;;;19.30;67.30;;;;;;6246194;23;20136;-77
2021/11/02 00:57:26;;;;;;;17.75;13.20;;;19.30;67.20;;;;;;6246599;23;20157;-77
2021/11/02 00:59:52;;;;;;;18.25;12.90;;;19.30;67.20;;;;;;6246463;23;20259;-77
2021/11/02 01:02:18;;;;;;;18.73;13.25;;;19.30;67.20;;;;;;6246395;23;20183;-77
2021/11/02 01:04:46;;;;;;;20.02;13.05;;;19.30;67.30;;;;;;6246860;23;20137;-77
2021/11/02 01:07:12;;;;;;;15.88;13.13;;;19.30;67.30;;;;;;6246414;23;20573;-77
2021/11/02 01:09:37;;;;;;;16.30;12.20;;;19.30;67.30;;;;;;6246314;23;20180;-77
2021/11/02 01:12:03;;;;;;;16.60;12.65;;;19.20;67.20;;;;;;6246287;23;20208;-77
2021/11/02 01:14:29;;;;;;;17.63;12.68;;;19.30;67.30;;;;;;6246583;23;20149;-77
2021/11/02 01:16:55;;;;;;;15.98;12.43;;;19.30;67.30;;;;;;6219746;23;20160;-77
2021/11/02 01:19:21;;;;;;;19.95;13.18;;;19.20;67.20;;;;;;6246384;23;20130;-77
2021/11/02 01:21:47;;;;;;;17.92;12.93;;;19.30;67.30;;;;;;6246188;23;20142;-77
2021/11/02 01:24:13;;;;;;;16.63;12.68;;;19.30;67.30;;;;;;6246499;23;20490;-77
2021/11/02 01:26:38;;;;;;;18.92;13.05;;;19.30;67.30;;;;;;6246370;23;20459;-77
2021/11/02 01:29:04;;;;;;;17.88;13.55;;;19.20;67.30;;;;;;6246606;23;20141;-77
2021/11/02 01:31:30;;;;;;;20.13;13.60;;;19.20;67.30;;;;;;6219463;23;20153;-77
2021/11/02 01:33:56;;;;;;;17.83;13.43;;;19.20;67.30;;;;;;6219689;23;20138;-77
2021/11/02 01:36:21;;;;;;;17.55;13.57;;;19.20;67.30;;;;;;6246611;23;20133;-77
2021/11/02 01:38:47;;;;;;;18.10;12.85;;;19.20;67.30;;;;;;6246176;23;20145;-77
2021/11/02 01:41:18;;;;;;;17.33;12.60;;;19.20;67.30;;;;;;6246082;23;20153;-77
2021/11/02 01:43:44;;;;;;;20.50;13.40;;;19.30;67.30;;;;;;6220807;23;20268;-77
2021/11/02 01:46:23;;;;;;;18.65;13.38;;;19.20;67.30;;;;;;6246214;23;20461;-77
2021/11/02 01:48:50;;;;;;;17.15;13.13;;;19.20;67.30;;;;;;6246028;23;20454;-76
2021/11/02 01:51:17;;;;;;;17.80;13.10;;;19.20;67.40;;;;;;6246465;23;20137;-76
2021/11/02 01:53:43;;;;;;;16.80;12.68;;;19.20;67.40;;;;;;6246270;23;20137;-77
2021/11/02 01:56:10;;;;;;;18.05;12.85;;;19.10;67.40;;;;;;6246269;23;20142;-78
2021/11/02 01:58:35;;;;;;;19.58;14.27;;;19.20;67.50;;;;;;6246056;23;20168;-77
2021/11/02 02:01:01;;;;;;;17.83;13.38;;;19.20;67.50;;;;;;6245885;23;20129;-77
2021/11/02 02:03:42;;;;;;;15.63;12.32;;;19.20;67.50;;;;;;6246251;23;20520;-77
2021/11/02 02:06:14;;;;;;;19.23;12.75;;;19.20;67.50;;;;;;6247077;23;20157;-77
2021/11/02 02:09:04;;;;;;;16.33;12.70;;;19.20;67.50;;;;;;6194229;23;20197;-77
2021/11/02 02:11:52;;;;;;;17.40;13.00;;;19.20;67.60;;;;;;6199446;23;20130;-77
2021/11/02 02:14:52;;;;;;;17.85;13.50;;;19.20;67.60;;;;;;6245770;23;20148;-77
2021/11/02 02:17:22;;;;;;;19.13;13.35;;;19.20;67.40;;;;;;6227071;23;20160;-77
2021/11/02 02:19:50;;;;;;;16.60;12.80;;;19.20;67.40;;;;;;6246231;23;20468;-77
2021/11/02 02:22:43;;;;;;;18.45;13.07;;;19.10;67.50;;;;;;6246193;23;20145;-77
2021/11/02 02:25:19;;;;;;;16.48;12.85;;;19.10;67.50;;;;;;6222456;23;20457;-77
2021/11/02 02:27:56;;;;;;;18.00;12.80;;;19.10;67.40;;;;;;6245998;23;20223;-77
2021/11/02 02:30:22;;;;;;;18.60;13.90;;;19.10;67.50;;;;;;6245888;23;20561;-77
2021/11/02 02:32:50;;;;;;;19.48;12.88;;;19.10;67.60;;;;;;6246559;23;20148;-76
2021/11/02 02:35:18;;;;;;;15.73;12.77;;;19.10;67.40;;;;;;6248159;23;20137;-77
2021/11/02 02:37:45;;;;;;;16.40;12.93;;;19.10;67.50;;;;;;6221276;23;20283;-77
2021/11/02 02:40:10;;;;;;;17.67;13.68;;;19.20;67.50;;;;;;6221276;23;20211;-77
2021/11/02 02:42:37;;;;;;;17.27;13.10;;;19.10;67.40;;;;;;6248169;23;20169;-77
2021/11/02 02:45:03;;;;;;;17.27;13.30;;;19.10;67.50;;;;;;6247656;23;20561;-77
2021/11/02 02:47:29;;;;;;;18.45;13.80;;;19.20;67.50;;;;;;6248077;23;20169;-77
2021/11/02 02:49:55;;;;;;;16.98;12.90;;;19.10;67.50;;;;;;6248087;23;20141;-77
2021/11/02 02:52:22;;;;;;;18.25;13.60;;;19.10;67.40;;;;;;6195732;23;20180;-77
2021/11/02 02:54:48;;;;;;;18.65;12.98;;;19.10;67.60;;;;;;6247489;23;20519;-77
2021/11/02 02:57:14;;;;;;;19.25;13.52;;;19.10;67.40;;;;;;6247717;23;20130;-77
2021/11/02 02:59:39;;;;;;;17.55;13.40;;;19.20;67.60;;;;;;6247845;23;20550;-77
2021/11/02 03:02:05;;;;;;;19.27;13.05;;;19.10;67.60;;;;;;6247840;23;20144;-77
2021/11/02 03:04:34;;;;;;;19.15;13.23;;;19.10;67.40;;;;;;6247923;23;20363;-77
2021/11/02 03:07:00;;;;;;;16.90;12.60;;;19.10;67.40;;;;;;6247864;23;20149;-77
2021/11/02 03:09:27;;;;;;;17.60;13.40;;;19.10;67.50;;;;;;6247936;23;20580;-77
2021/11/02 03:11:53;;;;;;;17.88;13.27;;;19.10;67.70;;;;;;6248187;23;20165;-77
2021/11/02 03:14:27;;;;;;;17.00;12.68;;;19.10;67.60;;;;;;6247462;23;20141;-77
2021/11/02 03:16:59;;;;;;;17.85;13.77;;;19.10;67.60;;;;;;6247935;23;20221;-77
2021/11/02 03:44:05;;;;;;;18.42;13.10;;;19.10;68.50;;;;;;6247225;23;20263;-77
2021/11/02 03:54:49;;;;;;;18.92;13.52;;;19.00;67.60;;;;;;6247004;23;20635;-77
2021/11/02 03:57:34;;;;;;;16.33;12.77;;;19.10;67.70;;;;;;6221153;23;20133;-76
2021/11/02 04:00:29;;;;;;;19.75;13.82;;;19.00;67.70;;;;;;6223680;23;20427;-77
2021/11/02 04:27:20;;;;;;;18.80;14.00;;;19.20;66.80;;;;;;6224684;23;20156;-77
2021/11/02 04:35:31;;;;;;;18.33;13.30;;;19.20;66.70;;;;;;6246387;23;20162;-77
2021/11/02 04:46:38;;;;;;;17.20;13.45;;;19.20;66.30;;;;;;6246398;23;20137;-77
2021/11/02 05:07:38;;;;;;;18.05;13.48;;;19.30;66.00;;;;;;6246078;23;20215;-77
2021/11/02 05:58:39;;;;;;;17.58;12.88;;;19.30;65.20;;;;;;6245935;23;20133;-77
2021/11/02 06:01:25;;;;;;;17.23;12.98;;;19.40;65.20;;;;;;6246219;23;20133;-77
2021/11/02 06:06:44;;;;;;;18.15;13.27;;;19.40;65.00;;;;;;6223957;23;20149;-77
2021/11/02 06:09:18;;;;;;;17.85;13.02;;;19.30;65.00;;;;;;6245484;23;20635;-77
2021/11/02 06:28:13;;;;;;;16.58;12.73;;;19.50;65.00;;;;;;6222160;23;20137;-77
2021/11/02 06:30:48;;;;;;;17.35;12.55;;;19.40;64.90;;;;;;6246168;23;20147;-76
2021/11/02 06:33:30;;;;;;;17.70;12.95;;;19.40;64.70;;;;;;6246108;23;20159;-77
2021/11/02 06:36:09;;;;;;;19.38;13.10;;;19.40;64.70;;;;;;6246018;23;20155;-77
2021/11/02 06:39:03;;;;;;;20.17;13.73;;;19.50;64.80;;;;;;6245870;23;20216;-77
2021/11/02 06:44:26;;;;;;;16.63;12.73;;;19.40;64.90;;;;;;6246096;23;20173;-77
2021/11/02 06:47:07;;;;;;;19.17;13.40;;;19.40;64.80;;;;;;6223535;23;20153;-77
2021/11/02 06:55:07;;;;;;;18.38;14.25;;;19.50;64.70;;;;;;6245594;23;20133;-77
2021/11/02 07:28:22;;;;;;;16.35;12.38;;;19.50;64.40;;;;;;6225260;23;20142;-76
2021/11/02 08:49:03;;;;;;;16.88;12.45;;;19.60;63.00;;;;;;6203302;23;20149;-77
2021/11/02 08:51:29;;;;;;;18.15;13.05;;;19.60;63.40;;;;;;6246456;23;20500;-77
2021/11/02 08:53:55;;;;;;;17.73;13.23;;;19.60;63.20;;;;;;6246300;23;20129;-77
2021/11/02 08:56:22;;;;;;;16.85;12.88;;;19.60;63.00;;;;;;6220237;23;20153;-77
2021/11/02 08:58:51;;;;;;;17.08;13.13;;;19.60;63.30;;;;;;6219594;23;20136;-77
2021/11/02 09:01:18;;;;;;;16.08;12.55;;;19.60;63.40;;;;;;6219102;23;20453;-77
2021/11/02 09:03:46;;;;;;;17.90;13.00;;;19.60;62.70;;;;;;6219587;23;20299;-77
2021/11/02 09:06:14;;;;;;;18.42;13.07;;;19.60;63.40;;;;;;6246291;23;20468;-77
2021/11/02 09:08:41;;;;;;;17.23;12.45;;;19.70;63.20;;;;;;6245784;23;20197;-77
2021/11/02 09:11:07;;;;;;;16.67;12.63;;;19.60;63.10;;;;;;6247059;23;20157;-76
2021/11/02 09:13:34;;;;;;;17.25;12.77;;;19.60;63.80;;;;;;6246584;23;20134;-77
2021/11/02 09:16:01;;;;;;;17.60;12.25;;;19.60;63.80;;;;;;6246723;23;20141;-78
2021/11/02 09:18:27;;;;;;;17.88;12.63;;;19.60;63.20;;;;;;6247174;23;20502;-77
2021/11/02 09:20:53;;;;;;;17.23;13.32;;;19.60;63.90;;;;;;6219992;23;20180;-78
2021/11/02 09:23:19;;;;;;;17.85;13.30;;;19.70;63.70;;;;;;6246178;23;20243;-77
2021/11/02 09:25:45;;;;;;;16.98;12.93;;;19.60;63.40;;;;;;6246097;23;20138;-77
2021/11/02 09:28:11;;;;;;;17.65;12.75;;;19.60;63.40;;;;;;6246149;23;20145;-77
2021/11/02 09:30:37;;;;;;;15.75;12.20;;;19.70;63.40;;;;;;6246045;23;20499;-77
2021/11/02 09:33:02;;;;;;;18.17;13.00;;;19.70;63.10;;;;;;6245737;23;20532;-77
2021/11/02 09:35:30;;;;;;;17.67;12.82;;;19.70;63.30;;;;;;6246321;23;20561;-77
2021/11/02 09:38:20;;;;;;;16.65;12.38;;;19.70;62.90;;;;;;6246525;23;20138;-76
2021/11/02 09:41:13;;;;;;;15.43;12.32;;;19.70;63.40;;;;;;6225189;23;20522;-77
2021/11/02 09:44:19;;;;;;;15.63;12.20;;;19.70;63.30;;;;;;6245607;23;20172;-77
2021/11/02 09:47:23;;;;;;;16.75;12.75;;;19.70;63.50;;;;;;6223949;23;20165;-77
2021/11/02 09:50:13;;;;;;;16.83;12.82;;;19.70;63.30;;;;;;6246199;23;20211;-77
2021/11/02 09:53:11;;;;;;;17.10;12.35;;;19.70;63.50;;;;;;6246574;23;20143;-77
2021/11/02 09:55:57;;;;;;;17.52;12.85;;;19.70;63.40;;;;;;6245772;23;20192;-77
2021/11/02 09:58:50;;;;;;;17.45;13.02;;;19.80;63.50;;;;;;6219224;23;20155;-76
2021/11/02 10:01:33;;;;;;;18.67;13.20;;;19.80;63.80;;;;;;6245765;23;20192;-77
2021/11/02 10:04:14;;;;;;;16.67;12.35;;;19.80;63.30;;;;;;6219157;23;20168;-77
2021/11/02 10:07:03;;;;;;;17.05;12.25;;;19.70;63.80;;;;;;6245978;23;20581;-77
2021/11/02 10:09:38;;;;;;;17.80;12.38;;;19.80;63.50;;;;;;6246290;23;20142;-77
2021/11/02 10:12:14;;;;;;;17.35;12.57;;;19.80;63.30;;;;;;6245821;23;20129;-77
2021/11/02 10:14:53;;;;;;;17.30;12.65;;;19.80;63.70;;;;;;6246085;23;20141;-77
2021/11/02 10:17:43;;;;;;;17.50;12.65;;;19.80;63.60;;;;;;6247502;23;20160;-77
2021/11/02 10:20:16;;;;;;;17.15;12.63;;;19.80;63.30;;;;;;6219580;23;20528;-77
2021/11/02 10:23:13;;;;;;;16.50;12.13;;;19.80;63.10;;;;;;6245616;23;20549;-77
2021/11/02 10:26:06;;;;;;;17.10;11.68;;;19.80;63.60;;;;;;6198201;23;20137;-77
2021/11/02 10:29:12;;;;;;;18.17;12.50;;;19.80;63.30;;;;;;6245864;23;20137;-77
2021/11/02 10:32:03;;;;;;;18.42;12.00;;;19.80;63.50;;;;;;6245943;23;20129;-77
2021/11/02 10:35:01;;;;;;;17.42;12.25;;;19.80;63.70;;;;;;6246016;23;20137;-77
2021/11/02 10:38:03;;;;;;;17.50;12.48;;;19.80;63.40;;;;;;6245529;23;20156;-77
2021/11/02 10:40:36;;;;;;;18.30;12.25;;;19.80;63.30;;;;;;6223324;23;20231;-77
2021/11/02 10:43:43;;;;;;;17.20;12.13;;;19.90;63.70;;;;;;6245557;23;20181;-77
2021/11/02 10:46:10;;;;;;;16.73;11.88;;;19.80;63.60;;;;;;6207040;23;20130;-77
2021/11/02 10:48:47;;;;;;;16.45;12.23;;;19.80;63.60;;;;;;6246421;23;20134;-77
2021/11/02 10:51:24;;;;;;;18.55;12.73;;;19.80;63.60;;;;;;6219294;23;20137;-76
2021/11/02 10:54:00;;;;;;;18.60;12.75;;;19.80;63.80;;;;;;6245842;23;20192;-76
2021/11/02 10:56:53;;;;;;;16.73;12.00;;;19.80;63.90;;;;;;6247689;23;20145;-77
2021/11/02 10:59:18;;;;;;;16.30;12.50;;;19.80;63.90;;;;;;6247630;23;20161;-77
2021/11/02 11:01:47;;;;;;;16.02;12.23;;;19.80;63.80;;;;;;6220564;23;20138;-77
2021/11/02 11:04:13;;;;;;;16.92;11.90;;;19.80;63.80;;;;;;6247620;23;20181;-77
2021/11/02 11:06:42;;;;;;;17.58;11.95;;;19.80;63.70;;;;;;6247725;23;20545;-76
2021/11/02 11:09:10;;;;;;;17.00;12.48;;;19.80;63.70;;;;;;6220908;23;20200;-80
2021/11/02 11:11:38;;;;;;;19.15;12.50;;;19.80;63.60;;;;;;6220276;23;20149;-82
2021/11/02 11:14:08;;;;;;;19.30;12.73;;;19.80;64.20;;;;;;6221973;23;20130;-82
2021/11/02 11:16:36;;;;;;;18.58;12.38;;;19.80;64.10;;;;;;6197819;23;20133;-83
2021/11/02 11:19:17;;;;;;;17.15;12.63;;;19.80;64.00;;;;;;6171545;23;20240;-82
2021/11/02 11:21:42;;;;;;;18.63;11.90;;;19.80;63.90;;;;;;6247470;23;20129;-82
2021/11/02 11:24:44;;;;;;;18.17;12.85;;;19.90;64.10;;;;;;6220809;23;20165;-83
2021/11/02 11:27:10;;;;;;;16.27;11.88;;;19.80;63.80;;;;;;6225152;23;20136;-83
2021/11/02 11:29:41;;;;;;;17.50;12.43;;;19.90;63.70;;;;;;6195794;23;20130;-83
2021/11/02 11:32:07;;;;;;;17.98;12.30;;;19.80;63.80;;;;;;6247528;23;20126;-82
2021/11/02 11:34:35;;;;;;;19.73;12.40;;;19.80;64.00;;;;;;6196671;23;20175;-81
2021/11/02 11:37:01;;;;;;;20.27;13.10;;;19.80;64.10;;;;;;6195515;23;20157;-80
2021/11/02 11:39:28;;;;;;;18.35;12.77;;;19.70;62.50;;;;;;6220691;23;20625;-82
2021/11/02 11:41:54;;;;;;;18.52;12.02;;;19.80;63.90;;;;;;6247310;23;20129;-82
2021/11/02 11:44:21;;;;;;;17.63;12.48;;;19.80;64.00;;;;;;6195500;23;20172;-80
2021/11/02 11:46:47;;;;;;;20.27;13.32;;;19.80;63.90;;;;;;6171560;23;20180;-81
2021/11/02 11:49:29;;;;;;;18.95;13.00;;;19.80;64.10;;;;;;6196528;23;20591;-82
2021/11/02 11:51:57;;;;;;;19.10;12.35;;;19.80;63.30;;;;;;6195921;23;20531;-81
2021/11/02 11:54:26;;;;;;;17.92;12.52;;;19.80;63.90;;;;;;6220465;23;20133;-79
2021/11/02 11:56:58;;;;;;;19.25;12.75;;;19.80;63.60;;;;;;6220467;23;20130;-80
2021/11/02 11:59:26;;;;;;;19.65;12.90;;;19.80;63.10;;;;;;6171487;23;20225;-80
2021/11/02 12:01:57;;;;;;;18.55;12.73;;;19.80;63.90;;;;;;6220633;23;20134;-79
2021/11/02 12:04:36;;;;;;;16.95;12.65;;;19.70;63.10;;;;;;6195421;23;20492;-79
2021/11/02 12:07:14;;;;;;;21.60;12.70;;;19.80;63.20;;;;;;6219910;23;20220;-79
2021/11/02 12:09:41;;;;;;;17.60;13.05;;;19.70;63.90;;;;;;6215534;23;20162;-79
2021/11/02 12:12:07;;;;;;;18.13;13.15;;;19.80;63.90;;;;;;6190453;23;20131;-79
2021/11/02 12:14:33;;;;;;;19.45;12.93;;;19.80;63.00;;;;;;6215215;23;20221;-79
2021/11/02 12:17:00;;;;;;;18.17;12.93;;;19.80;62.90;;;;;;6216840;23;20225;-79
2021/11/02 12:19:41;;;;;;;18.52;13.52;;;19.80;63.60;;;;;;6215597;23;20146;-79
2021/11/02 12:22:12;;;;;;;18.63;11.88;;;19.80;63.70;;;;;;6216583;23;20135;-79
2021/11/02 12:24:38;;;;;;;17.35;13.02;;;19.80;63.60;;;;;;6216852;23;20228;-79
2021/11/02 12:27:14;;;;;;;19.13;12.60;;;19.80;63.00;;;;;;6214810;23;20574;-79
2021/11/02 12:29:41;;;;;;;17.08;12.18;;;19.80;63.50;;;;;;6190449;23;20506;-79
2021/11/02 12:32:07;;;;;;;17.58;12.95;;;19.80;63.00;;;;;;6214867;23;20138;-79
2021/11/02 12:34:46;;;;;;;17.27;12.65;;;19.80;63.10;;;;;;6189670;23;20134;-79
2021/11/02 12:37:12;;;;;;;19.20;13.10;;;19.80;63.20;;;;;;6216232;23;20137;-79
2021/11/02 12:39:38;;;;;;;18.85;13.48;;;19.80;63.20;;;;;;6214936;23;20213;-79
2021/11/02 12:42:04;;;;;;;18.75;13.65;;;19.80;62.80;;;;;;6190040;23;20158;-79
2021/11/02 12:44:33;;;;;;;20.48;13.02;;;19.80;62.90;;;;;;6214744;23;20165;-79
2021/11/02 12:47:00;;;;;;;18.48;12.70;;;19.80;63.10;;;;;;6215246;23;20137;-80
2021/11/02 12:49:37;;;;;;;20.30;12.50;;;19.90;63.10;;;;;;6216222;23;20193;-79
2021/11/02 12:52:05;;;;;;;18.27;12.65;;;19.90;63.40;;;;;;6216221;23;20137;-79
2021/11/02 12:54:31;;;;;;;17.83;11.98;;;19.80;63.10;;;;;;6215008;23;20134;-80
2021/11/02 12:57:02;;;;;;;17.90;12.55;;;19.80;63.10;;;;;;6216364;23;20142;-80
2021/11/02 12:59:34;;;;;;;19.98;12.98;;;19.80;63.30;;;;;;6215919;23;20534;-79
2021/11/02 13:02:16;;;;;;;19.92;13.40;;;19.80;63.60;;;;;;6217039;23;20135;-80
2021/11/02 13:04:42;;;;;;;16.42;12.52;;;19.80;63.20;;;;;;6192498;23;20177;-79
2021/11/02 13:07:11;;;;;;;18.58;13.35;;;19.80;62.70;;;;;;6217160;23;20141;-81
2021/11/02 13:09:37;;;;;;;17.85;12.55;;;19.80;62.60;;;;;;6194560;23;20232;-82
2021/11/02 13:12:07;;;;;;;16.08;12.57;;;19.80;63.10;;;;;;6255571;23;20193;-79
2021/11/02 13:14:39;;;;;;;17.85;13.02;;;19.80;63.00;;;;;;6229150;23;20141;-80
2021/11/02 13:17:07;;;;;;;18.65;13.52;;;19.80;63.10;;;;;;6195913;23;20173;-81
2021/11/02 13:19:35;;;;;;;18.35;13.00;;;19.80;63.50;;;;;;6176560;23;20137;-80
2021/11/02 13:22:23;;;;;;;18.48;13.60;;;19.80;62.60;;;;;;6226884;23;20456;-78
2021/11/02 13:25:07;;;;;;;18.20;13.13;;;19.80;63.40;;;;;;6255069;23;20173;-80
2021/11/02 13:27:48;;;;;;;16.77;12.75;;;19.80;62.50;;;;;;6226905;23;20129;-79
2021/11/02 13:30:34;;;;;;;18.60;12.25;;;19.80;62.30;;;;;;6251747;23;20505;-78
2021/11/02 13:33:02;;;;;;;16.92;13.02;;;19.80;62.80;;;;;;6200140;23;20200;-80
2021/11/02 13:36:01;;;;;;;17.75;12.43;;;19.80;61.80;;;;;;6226001;23;20565;-80
2021/11/02 13:38:33;;;;;;;18.00;13.48;;;19.80;62.60;;;;;;6252051;23;20573;-80
2021/11/02 13:41:15;;;;;;;18.67;13.05;;;19.80;62.60;;;;;;6253103;23;20218;-79
2021/11/02 13:43:44;;;;;;;17.48;12.57;;;19.80;63.00;;;;;;6224927;23;20173;-78
2021/11/02 13:46:12;;;;;;;17.05;12.55;;;19.80;62.80;;;;;;6177124;23;20138;-79
2021/11/02 13:48:38;;;;;;;18.88;13.00;;;19.80;62.60;;;;;;6249469;23;20130;-79
2021/11/02 13:51:05;;;;;;;16.23;12.30;;;19.80;62.30;;;;;;6250728;23;20137;-79
2021/11/02 13:53:37;;;;;;;17.90;13.60;;;19.80;62.50;;;;;;6221591;23;20133;-78
2021/11/02 13:56:25;;;;;;;17.02;12.57;;;19.80;62.20;;;;;;6198465;23;20231;-80
2021/11/02 13:58:51;;;;;;;19.45;12.52;;;19.90;61.90;;;;;;6194983;23;20138;-77
2021/11/02 14:01:30;;;;;;;18.27;13.35;;;19.90;62.20;;;;;;6247985;23;20156;-79
2021/11/02 14:04:16;;;;;;;16.92;12.77;;;19.80;61.80;;;;;;6248402;23;20259;-79
2021/11/02 14:06:46;;;;;;;18.35;12.63;;;19.80;61.60;;;;;;6225995;23;20133;-79
2021/11/02 14:09:16;;;;;;;20.67;12.73;;;19.90;62.60;;;;;;6192000;23;20190;-78
2021/11/02 14:11:42;;;;;;;20.13;13.10;;;19.90;62.40;;;;;;6191885;23;20154;-79
2021/11/02 14:14:11;;;;;;;20.23;13.75;;;19.90;61.60;;;;;;6216872;23;20214;-78
2021/11/02 14:16:41;;;;;;;20.67;13.80;;;19.90;62.10;;;;;;6216914;23;20216;-79
2021/11/02 14:19:34;;;;;;;20.85;13.02;;;19.90;62.50;;;;;;6218352;23;20194;-79
2021/11/02 14:22:04;;;;;;;21.98;12.77;;;19.90;62.50;;;;;;6221244;23;20570;-78
2021/11/02 14:24:33;;;;;;;25.85;12.90;;;19.90;62.10;;;;;;6219291;23;20247;-78
2021/11/02 14:26:59;;;;;;;21.33;12.82;;;19.90;62.40;;;;;;6218652;23;20126;-79
2021/11/02 14:29:56;;;;;;;19.45;13.10;;;19.90;62.60;;;;;;6222045;23;20634;-78
2021/11/02 14:32:45;;;;;;;18.40;13.10;;;19.90;62.50;;;;;;6224388;23;20153;-79
2021/11/02 14:35:12;;;;;;;19.80;13.63;;;20.00;61.70;;;;;;6224453;23;20180;-80
2021/11/02 14:37:53;;;;;;;21.50;13.20;;;19.90;62.10;;;;;;6225380;23;20129;-79
2021/11/02 14:40:28;;;;;;;18.63;12.38;;;20.00;62.50;;;;;;6222204;23;20130;-77
2021/11/02 14:42:56;;;;;;;21.15;13.18;;;19.90;63.10;;;;;;6223789;23;20192;-78
2021/11/02 14:45:37;;;;;;;20.20;13.45;;;19.90;62.50;;;;;;6223408;23;20137;-79
2021/11/02 14:48:35;;;;;;;20.42;13.50;;;19.90;61.90;;;;;;6225489;23;20130;-79
2021/11/02 14:51:03;;;;;;;23.48;12.75;;;19.90;62.50;;;;;;6224894;23;20141;-77
2021/11/02 14:53:35;;;;;;;19.00;12.93;;;20.00;62.20;;;;;;6221062;23;20584;-79
2021/11/02 14:56:11;;;;;;;22.95;13.30;;;19.90;62.50;;;;;;6222192;23;20134;-78
2021/11/02 14:58:51;;;;;;;18.80;13.25;;;20.00;61.70;;;;;;6197009;23;20245;-80
2021/11/02 15:01:24;;;;;;;20.25;13.05;;;19.90;62.10;;;;;;6220220;23;20189;-80
2021/11/02 15:03:53;;;;;;;18.60;12.60;;;20.00;62.00;;;;;;6219233;23;20564;-79
2021/11/02 15:06:19;;;;;;;18.60;12.98;;;19.90;62.10;;;;;;6219186;23;20134;-79
2021/11/02 15:08:46;;;;;;;18.15;13.20;;;19.90;62.00;;;;;;6217794;23;20205;-79
2021/11/02 15:11:16;;;;;;;18.55;13.02;;;20.00;62.00;;;;;;6219733;23;20130;-81
2021/11/02 15:13:52;;;;;;;19.38;13.48;;;19.90;61.50;;;;;;6218784;23;20513;-79
2021/11/02 15:16:18;;;;;;;18.73;13.70;;;19.90;62.10;;;;;;6219592;23;20165;-79
2021/11/02 15:18:45;;;;;;;17.60;12.80;;;19.90;61.90;;;;;;6219191;23;20570;-81
2021/11/02 15:21:16;;;;;;;20.48;12.88;;;19.90;62.00;;;;;;6219750;23;20130;-79
2021/11/02 15:23:44;;;;;;;19.92;12.57;;;20.00;61.90;;;;;;6217536;23;20196;-79
2021/11/02 15:26:12;;;;;;;18.70;12.95;;;20.00;62.20;;;;;;6193349;23;20142;-81
2021/11/02 15:28:41;;;;;;;18.65;13.30;;;19.90;61.80;;;;;;6217701;23;20184;-79
2021/11/02 15:34:14;;;;;;;17.73;12.70;;;19.90;61.50;;;;;;6069873;23;20621;-80
2021/11/02 15:36:39;;;;;;;18.42;12.75;;;20.00;61.70;;;;;;6071081;23;20153;-78
2021/11/02 15:39:07;;;;;;;20.35;13.63;;;19.90;61.40;;;;;;6070161;23;20620;-80
2021/11/02 15:41:33;;;;;;;19.05;13.20;;;20.00;61.60;;;;;;6066568;23;20647;-79
2021/11/02 15:44:02;;;;;;;19.90;13.13;;;20.00;61.80;;;;;;6067495;23;20239;-79
2021/11/02 15:46:37;;;;;;;19.30;12.40;;;20.00;62.10;;;;;;6069214;23;20153;-78
2021/11/02 15:49:04;;;;;;;17.90;12.38;;;20.00;62.50;;;;;;6069214;23;20172;-82
2021/11/02 15:51:35;;;;;;;16.33;12.63;;;20.00;62.40;;;;;;6072053;23;20204;-79
2021/11/02 15:54:06;;;;;;;20.67;13.85;;;20.00;62.70;;;;;;6069347;23;20161;-80
2021/11/02 15:56:32;;;;;;;20.50;12.93;;;19.90;61.50;;;;;;6070599;23;20268;-81
2021/11/02 15:59:01;;;;;;;18.52;12.60;;;20.00;62.10;;;;;;6069681;23;20180;-80
2021/11/02 16:01:29;;;;;;;15.98;12.68;;;19.90;61.80;;;;;;6069248;23;20725;-78
2021/11/02 16:04:10;;;;;;;19.48;13.65;;;19.90;62.50;;;;;;6083804;23;20188;-80
2021/11/02 16:07:04;;;;;;;17.80;13.30;;;19.90;62.30;;;;;;6188003;23;20171;-79
2021/11/02 16:09:49;;;;;;;17.65;12.13;;;20.00;62.60;;;;;;6164804;23;20256;-79
2021/11/02 16:12:17;;;;;;;16.80;12.93;;;20.00;62.00;;;;;;6221765;23;20153;-83
2021/11/02 16:14:52;;;;;;;19.25;12.98;;;19.90;62.40;;;;;;6223657;23;20146;-81
2021/11/02 16:17:19;;;;;;;18.10;12.48;;;20.00;62.50;;;;;;6195118;23;20180;-78
2021/11/02 16:19:45;;;;;;;17.65;13.05;;;20.00;62.90;;;;;;6218148;23;20624;-84
2021/11/02 16:22:10;;;;;;;19.42;13.07;;;20.00;62.90;;;;;;6219811;23;20137;-80
2021/11/02 16:24:37;;;;;;;19.02;13.57;;;20.00;62.50;;;;;;6218577;23;20174;-80
2021/11/02 16:27:21;;;;;;;16.77;12.27;;;20.00;62.80;;;;;;6219206;23;20553;-80
2021/11/02 16:29:49;;;;;;;17.80;12.52;;;20.00;62.60;;;;;;6223473;23;20141;-82
2021/11/02 16:32:21;;;;;;;21.30;13.27;;;20.00;63.60;;;;;;6221725;23;20141;-79
2021/11/02 16:34:47;;;;;;;18.83;12.98;;;20.10;62.70;;;;;;6218814;23;20529;-82
2021/11/02 16:37:28;;;;;;;17.90;12.75;;;20.00;62.90;;;;;;6218923;23;20131;-81
2021/11/02 16:40:25;;;;;;;19.85;13.20;;;20.10;62.70;;;;;;6221808;23;20217;-80
2021/11/02 16:42:54;;;;;;;20.02;13.30;;;20.10;62.70;;;;;;6216292;23;20553;-82
2021/11/02 16:45:20;;;;;;;20.45;13.13;;;20.10;62.60;;;;;;6220057;23;20138;-79
2021/11/02 16:47:47;;;;;;;18.58;13.55;;;20.10;62.20;;;;;;6220294;23;20443;-78
2021/11/02 16:50:13;;;;;;;20.08;13.18;;;20.10;62.40;;;;;;6217274;23;20126;-79
2021/11/02 16:52:41;;;;;;;17.83;12.95;;;20.10;62.30;;;;;;6217817;23;20585;-78
2021/11/02 16:55:09;;;;;;;20.48;13.30;;;20.10;62.10;;;;;;6217787;23;20627;-79
2021/11/02 16:57:34;;;;;;;18.02;12.73;;;20.10;62.30;;;;;;6215778;23;20135;-80
2021/11/02 17:00:06;;;;;;;18.98;13.25;;;20.10;61.70;;;;;;6216998;23;20509;-81
2021/11/02 17:02:35;;;;;;;17.58;13.23;;;20.10;61.70;;;;;;6216953;23;20126;-81
2021/11/02 17:05:13;;;;;;;19.02;13.23;;;20.10;61.50;;;;;;6215378;23;20174;-78
2021/11/02 17:07:45;;;;;;;19.63;12.57;;;20.10;62.30;;;;;;6223941;23;20197;-78
2021/11/02 17:10:17;;;;;;;19.92;13.48;;;20.10;62.30;;;;;;6220814;23;20134;-81
2021/11/02 17:12:47;;;;;;;19.10;12.90;;;20.10;62.20;;;;;;6246494;23;20247;-80
2021/11/02 17:15:21;;;;;;;20.90;13.90;;;20.20;62.40;;;;;;6195272;23;20149;-80
2021/11/02 17:17:47;;;;;;;18.33;13.45;;;20.10;62.30;;;;;;6247329;23;20192;-79
2021/11/02 17:20:14;;;;;;;18.27;12.43;;;20.20;62.40;;;;;;6246842;23;20209;-78
2021/11/02 17:22:39;;;;;;;18.83;12.95;;;20.10;62.60;;;;;;6246588;23;20165;-78
2021/11/02 17:25:06;;;;;;;19.00;13.35;;;20.20;63.20;;;;;;6246221;23;20549;-80
2021/11/02 17:27:32;;;;;;;19.58;13.20;;;20.20;62.40;;;;;;6220567;23;20183;-79
2021/11/02 17:29:58;;;;;;;18.88;13.20;;;20.20;63.20;;;;;;6246935;23;20126;-80
2021/11/02 17:32:24;;;;;;;18.48;12.93;;;20.20;62.80;;;;;;6246224;23;20129;-79